Flight Track Log - Related Links

Times and Time Zones

All times are in EDT time to prevent confusion due to time zone crossing. See the N510SR flight status page for this flight to view local times or setup timezone preferences in your user account.

Time Position Orientation Groundspeed Altitude Reporting Facility
EDT Latitude Longitude Course Direction KTS MPH feet Rate Location/Type
Tue 08:57:35 PM 33.9333 -118.4667 215° Southwest 201 231 2,100  Level Southern California TRACON
Tue 08:58:41 PM 33.8728 -118.5181 215° Southwest 264 304 4,900 2,813 Climbing Los Angeles Center
Tue 08:59:43 PM 33.8044 -118.5175 180° South 269 310 8,100 2,855 Climbing Los Angeles Center
Tue 09:00:45 PM 33.7083 -118.4914 167° South 324 373 10,800 2,274 Climbing Los Angeles Center
Tue 09:01:47 PM 33.6569 -118.3922 122° Southeast 365 420 12,800 1,984 Climbing Los Angeles Center
Tue 09:02:49 PM 33.6414 -118.2644 98° East 392 451 14,900 1,935 Climbing Los Angeles Center
Tue 09:03:51 PM 33.6436 -118.1000 89° East 416 479 16,800 1,887 Climbing Los Angeles Center
Tue 09:04:53 PM 33.6439 -117.9589 90° East 423 487 18,800 1,597 Climbing Los Angeles Center
Tue 09:05:55 PM 33.6439 -117.8158 90° East 429 494 20,100 1,355 Climbing Los Angeles Center
Tue 09:06:57 PM 33.6439 -117.6675 90° East 442 509 21,600 1,355 Climbing Los Angeles Center
Tue 09:07:59 PM 33.6433 -117.5153 90° East 453 521 22,900 1,258 Climbing Los Angeles Center
Tue 09:09:01 PM 33.6408 -117.3600 91° East 463 533 24,200 1,258 Climbing Los Angeles Center
Tue 09:10:03 PM 33.6394 -117.1692 90° East 478 550 25,500 1,355 Climbing Los Angeles Center
Tue 09:11:05 PM 33.6383 -117.0083 90° East 484 557 27,000 1,403 Climbing Los Angeles Center
Tue 09:12:07 PM 33.6361 -116.8367 91° East 491 565 28,400 1,403 Climbing Los Angeles Center
Tue 09:13:09 PM 33.6344 -116.6725 91° East 490 564 29,900 1,415 Climbing Los Angeles Center
Tue 09:14:10 PM 33.6333 -116.5417 91° East 491 565 31,300 1,742 Climbing Los Angeles Center
Tue 09:15:13 PM 33.6308 -116.3536 91° East 472 543 33,500 1,839 Climbing Los Angeles Center
Tue 09:16:14 PM 33.6311 -116.1947 90° East 472 543 35,100 1,463 Climbing Los Angeles Center
Tue 09:17:16 PM 33.6425 -116.0372 85° East 472 543 36,500 1,210 Climbing Los Angeles Center
Tue 09:18:18 PM 33.6594 -115.8822 82° East 469 540 37,600 1,065 Climbing Los Angeles Center
Tue 09:19:20 PM 33.6833 -115.6939 81° East 476 548 38,700 1,016 Climbing Los Angeles Center
Tue 09:20:22 PM 33.6992 -115.5336 83° East 481 554 39,700 919 Climbing Los Angeles Center
Tue 09:21:24 PM 33.7178 -115.3725 82° East 487 560 40,600 629 Climbing Los Angeles Center
Tue 09:22:26 PM 33.7372 -115.2086 82° East 495 570 41,000 194 Climbing Los Angeles Center
Tue 09:23:28 PM 33.7553 -115.0408 83° East 509 586 41,000  Level Los Angeles Center
Tue 09:24:30 PM 33.7742 -114.8661 83° East 528 608 41,000  Level Los Angeles Center
Tue 09:25:32 PM 33.7931 -114.6900 83° East 536 617 41,000  Level Los Angeles Center
Tue 09:26:34 PM 33.8153 -114.4758 83° East 542 624 41,000  Level Los Angeles Center
Tue 09:27:35 PM 33.8350 -114.2972 82° East 542 624 41,000 63 Level Los Angeles Center
Tue 09:28:10 PM 33.8481 -114.1978 81° East 541 623 41,100 63 Climbing Albuquerque Center
Tue 09:29:10 PM 33.8672 -114.0175 83° East 542 624 41,100  Level Albuquerque Center
Tue 09:30:13 PM 33.8847 -113.8383 83° East 541 623 41,100  Level Albuquerque Center
Tue 09:31:13 PM 33.9039 -113.6578 83° East 544 626 41,100  Level Albuquerque Center
Tue 09:32:14 PM 33.9197 -113.4783 84° East 542 624 41,100  Level Albuquerque Center
Tue 09:33:16 PM 33.9378 -113.2969 83° East 545 627 41,100  Level Albuquerque Center
Tue 09:34:16 PM 33.9547 -113.1181 83° East 542 624 41,100  Level Albuquerque Center
Tue 09:35:17 PM 33.9722 -112.9375 83° East 543 625 41,100  Level Albuquerque Center
Tue 09:36:19 PM 33.9883 -112.7567 84° East 543 625 41,100  Level Albuquerque Center
Tue 09:37:22 PM 34.0081 -112.5414 84° East 541 623 41,100  Level Albuquerque Center
Tue 09:38:23 PM 34.0250 -112.3611 83° East 543 625 41,100  Level Albuquerque Center
Tue 09:39:23 PM 34.0403 -112.1817 84° East 539 620 41,100  Level Albuquerque Center
Tue 09:40:25 PM 34.0572 -111.9917 84° East 538 619 41,100  Level Albuquerque Center
Tue 09:41:26 PM 34.0719 -111.8117 84° East 539 620 41,100  Level Albuquerque Center
Tue 09:42:28 PM 34.0878 -111.6303 84° East 541 623 41,100  Level Albuquerque Center
Tue 09:43:30 PM 34.1014 -111.4508 85° East 536 617 41,100  Level Albuquerque Center
Tue 09:44:30 PM 34.1161 -111.2722 84° East 534 615 41,100  Level Albuquerque Center
Tue 09:45:32 PM 34.1306 -111.0953 84° East 533 613 41,100  Level Albuquerque Center
Tue 09:46:32 PM 34.1439 -110.9178 85° East 532 612 41,100  Level Albuquerque Center
Tue 09:47:33 PM 34.1581 -110.7378 85° East 537 618 41,100  Level Albuquerque Center
Tue 09:48:35 PM 34.1733 -110.5319 85° East 536 617 41,100  Level Albuquerque Center
Tue 09:49:36 PM 34.1856 -110.3550 85° East 532 612 41,100  Level Albuquerque Center
Tue 09:50:37 PM 34.1983 -110.1758 85° East 534 615 41,100  Level Albuquerque Center
Tue 09:51:38 PM 34.2122 -109.9922 85° East 535 616 41,100  Level Albuquerque Center
Tue 09:52:38 PM 34.2231 -109.8211 86° East 534 615 41,100  Level Albuquerque Center
Tue 09:53:42 PM 34.2369 -109.6233 85° East 532 612 41,100  Level Albuquerque Center
Tue 09:54:43 PM 34.2478 -109.4525 86° East 533 613 41,100  Level Albuquerque Center
Tue 09:55:43 PM 34.2581 -109.2831 86° East 532 612 41,100  Level Albuquerque Center
Tue 09:56:44 PM 34.2711 -109.0828 85° East 534 615 41,100  Level Albuquerque Center
Tue 09:57:45 PM 34.2814 -108.9117 86° East 534 615 41,100  Level Albuquerque Center
Tue 09:58:46 PM 34.2908 -108.7450 86° East 534 615 41,100  Level Albuquerque Center
Tue 09:59:47 PM 34.3008 -108.5672 86° East 533 613 41,100  Level Albuquerque Center
Tue 10:00:48 PM 34.3128 -108.3736 86° East 525 604 41,100  Level Albuquerque Center
Tue 10:01:51 PM 34.3214 -108.1972 87° East 525 604 41,100  Level Albuquerque Center
Tue 10:02:53 PM 34.3308 -108.0211 86° East 526 605 41,100  Level Albuquerque Center
Tue 10:03:52 PM 34.3397 -107.8447 86° East 527 606 41,100  Level Albuquerque Center
Tue 10:04:53 PM 34.3472 -107.6700 87° East 525 604 41,100  Level Albuquerque Center
Tue 10:05:56 PM 34.3567 -107.4603 87° East 525 604 41,100  Level Albuquerque Center
Tue 10:06:58 PM 34.3650 -107.2878 87° East 521 600 41,100  Level Albuquerque Center
Tue 10:07:58 PM 34.3767 -107.1092 85° East 510 587 41,100  Level Albuquerque Center
Tue 10:08:58 PM 34.3833 -106.9386 87° East 510 587 41,100  Level Albuquerque Center
Tue 10:09:59 PM 34.3903 -106.7667 87° East 513 590 41,100  Level Albuquerque Center
Tue 10:11:02 PM 34.3972 -106.5933 87° East 516 594 41,100  Level Albuquerque Center
Tue 10:12:03 PM 34.4031 -106.4331 87° East 519 597 41,100  Level Albuquerque Center
Tue 10:13:05 PM 34.4100 -106.2606 87° East 516 594 41,100  Level Albuquerque Center
Tue 10:14:05 PM 34.4167 -106.0792 87° East 511 588 41,100  Level Albuquerque Center
Tue 10:15:05 PM 34.4236 -105.9067 87° East 511 588 41,100  Level Albuquerque Center
Tue 10:16:06 PM 34.4300 -105.7044 88° East 511 588 41,100  Level Albuquerque Center
Tue 10:17:09 PM 34.4350 -105.5319 88° East 511 588 41,100  Level Albuquerque Center
Tue 10:18:10 PM 34.4400 -105.3603 88° East 508 585 41,100  Level Albuquerque Center
Tue 10:19:11 PM 34.4456 -105.1881 88° East 509 586 41,100  Level Albuquerque Center
Tue 10:20:11 PM 34.4511 -105.0147 88° East 511 588 41,100  Level Albuquerque Center
Tue 10:21:13 PM 34.4553 -104.8406 88° East 513 590 41,100  Level Albuquerque Center
Tue 10:22:14 PM 34.4600 -104.6656 88° East 516 594 41,100  Level Albuquerque Center
Tue 10:23:14 PM 34.4650 -104.4897 88° East 519 597 41,100  Level Albuquerque Center
Tue 10:24:16 PM 34.4692 -104.3167 88° East 514 592 41,100  Level Albuquerque Center
Tue 10:25:18 PM 34.4725 -104.1439 89° East 513 590 41,100  Level Albuquerque Center
Tue 10:26:18 PM 34.4772 -103.9692 88° East 515 593 41,100  Level Albuquerque Center
Tue 10:27:19 PM 34.4797 -103.7986 89° East 509 586 41,100  Level Albuquerque Center
Tue 10:28:21 PM 34.4833 -103.6242 89° East 513 590 41,100  Level Albuquerque Center
Tue 10:29:22 PM 34.4856 -103.4517 89° East 512 589 41,100  Level Albuquerque Center
Tue 10:30:22 PM 34.4894 -103.2492 89° East 512 589 41,100  Level Albuquerque Center
Tue 10:31:23 PM 34.4914 -103.0747 89° East 513 590 41,100  Level Albuquerque Center
Tue 10:32:24 PM 34.4911 -102.9025 90° East 512 589 41,100  Level Albuquerque Center
Tue 10:33:24 PM 34.4836 -102.7294 93° East 512 589 41,100  Level Albuquerque Center
Tue 10:34:26 PM 34.4653 -102.5578 97° East 513 590 41,100  Level Albuquerque Center
Tue 10:35:28 PM 34.4456 -102.3847 98° East 516 594 41,100  Level Albuquerque Center
Tue 10:36:30 PM 34.4281 -102.2125 97° East 518 596 41,100  Level Albuquerque Center
Tue 10:37:31 PM 34.4106 -102.0422 97° East 516 594 41,100  Level Albuquerque Center
Tue 10:38:32 PM 34.3922 -101.8719 97° East 515 593 41,100  Level Albuquerque Center
Tue 10:39:32 PM 34.3728 -101.6994 98° East 517 595 41,100  Level Albuquerque Center
Tue 10:40:34 PM 34.3544 -101.5292 97° East 516 594 41,100  Level Albuquerque Center
Tue 10:41:35 PM 34.3186 -101.3258 102° East 504 580 41,100  Level Fort Worth Center
Tue 10:42:35 PM 34.2900 -101.1764 103° East 504 580 41,100  Level Fort Worth Center
Tue 10:43:35 PM 34.2494 -100.9936 105° East 517 595 41,100  Level Fort Worth Center
Tue 10:44:35 PM 34.2142 -100.8292 104° East 512 589 41,100  Level Fort Worth Center
Tue 10:45:35 PM 34.1831 -100.6647 103° East 512 589 41,100  Level Fort Worth Center
Tue 10:46:35 PM 34.1456 -100.5000 105° East 512 589 41,100  Level Fort Worth Center
Tue 10:47:35 PM 34.1100 -100.3358 105° East 507 583 41,100  Level Fort Worth Center
Tue 10:48:35 PM 34.0761 -100.1667 104° East 501 577 41,100  Level Fort Worth Center
Tue 10:49:35 PM 34.0400 -100.0075 105° East 501 577 41,100  Level Fort Worth Center
Tue 10:50:35 PM 34.0036 -99.8436 105° East 496 571 41,100 -800 Level Fort Worth Center
Tue 10:51:35 PM 33.9669 -99.6775 105° East 496 571 39,500 -1,600 Descending Fort Worth Center
Tue 10:52:35 PM 33.9303 -99.5111 105° East 502 578 37,900 -1,200 Descending Fort Worth Center
Tue 10:53:35 PM 33.8953 -99.3478 104° East 502 578 37,100 -400 Descending Fort Worth Center
Tue 10:54:35 PM 33.8561 -99.1842 106° East 502 578 37,100  Level Fort Worth Center
Tue 10:55:35 PM 33.8267 -99.0536 105° East 502 578 37,100 -1,450 Level Fort Worth Center
Tue 10:56:35 PM 33.7831 -98.8581 105° East 497 572 34,200 -2,850 Descending Fort Worth Center
Tue 10:57:35 PM 33.7411 -98.6900 107° East 504 580 31,400 -2,800 Descending Fort Worth Center
Tue 10:58:35 PM 33.7031 -98.5169 105° East 520 598 28,600 -2,800 Descending Fort Worth Center
Tue 10:59:35 PM 33.6647 -98.3569 106° East 512 589 25,800 -2,650 Descending Fort Worth Center
Tue 11:00:35 PM 33.6261 -98.2017 107° East 493 567 23,300 -2,400 Descending Fort Worth Center
Tue 11:01:35 PM 33.5956 -98.0717 106° East 455 524 21,000 -2,300 Descending Fort Worth Center
Tue 11:02:35 PM 33.5567 -97.9219 107° East 438 504 18,700 -2,300 Descending Fort Worth Center
Tue 11:03:35 PM 33.5278 -97.7897 105° East 417 480 16,400 -2,150 Descending Fort Worth Center
Tue 11:04:35 PM 33.4969 -97.6575 106° East 412 474 14,400 -2,050 Descending Fort Worth Center
Tue 11:05:35 PM 33.4636 -97.5356 108° East 395 455 12,300 -1,950 Descending Fort Worth Center
Tue 11:06:35 PM 33.4136 -97.4358 121° Southeast 357 411 10,500 -1,550 Descending Fort Worth Center
Tue 11:07:35 PM 33.3636 -97.3611 129° Southeast 301 346 9,200 -1,453 Descending Fort Worth Center
Tue 11:08:10 PM 33.3667 -97.3000 87° East 293 337 8,200 -1,579 Descending Dallas / Fort Worth TRACON
Tue 11:09:10 PM 33.3667 -97.2000 90° East 290 334 6,700 -1,500 Descending Dallas / Fort Worth TRACON
Tue 11:10:10 PM 33.3667 -97.1000 90° East 277 319 5,200 -1,300 Descending Dallas / Fort Worth TRACON
Tue 11:11:10 PM 33.3667 -97.0333 90° East 250 288 4,100 -579 Descending Dallas / Fort Worth TRACON
Tue 11:12:04 PM 33.3333 -96.9667 121° Southeast 251 289 4,100  Level Dallas / Fort Worth TRACON
Tue 11:12:35 PM 33.3064 -96.9336 134° Southeast 248 285 4,100 -462 Level Fort Worth Center
Tue 11:13:35 PM 33.2519 -96.8992 152° Southeast 222 255 3,400 -500 Descending Fort Worth Center
Tue 11:14:35 PM 33.1933 -96.8994 180° South 227 261 3,100 -150 Descending Fort Worth Center
Tue 11:15:35 PM 33.1183 -96.9050 184° South 243 280 3,100  Level Fort Worth Center
Tue 11:16:10 PM 33.0833 -96.9000 173° South 244 281 3,100 -535 Level Dallas / Fort Worth TRACON
Tue 11:17:16 PM 33.0000 -96.9167 190° South 244 281 2,200 -524 Descending Dallas / Fort Worth TRACON
Tue 11:18:16 PM 32.9500 -96.9167 180° South 204 235 2,000 -150 Descending Dallas / Fort Worth TRACON
Tue 11:19:16 PM 32.9000 -96.9167 180° South 159 183 1,900 -450 Descending Dallas / Fort Worth TRACON
Tue 11:20:16 PM 32.8667 -96.8833 140° Southeast 136 157 1,100 -800 Descending Dallas / Fort Worth TRACON
Tue 11:22:00 PM 32.8471 -96.8518 140° Southeast  Level Estimated
Tue 11:29:00 PM 32.8471 -96.8518 140° Southeast  Level Estimated

Login

Don't have an account? Register now (free) for customized features, flight alerts, and more!